createdAt,value
2023-03-06T00:01:56.481Z,49.91
2023-03-06T00:04:23.119Z,50.12
2023-03-06T00:06:49.796Z,50.23
2023-03-06T00:09:16.395Z,50.08
2023-03-06T00:12:07.195Z,50.50
2023-03-06T00:14:46.099Z,50.53
2023-03-06T00:17:12.685Z,50.64
2023-03-06T00:19:39.305Z,50.17
2023-03-06T00:22:05.893Z,50.10
2023-03-06T00:24:32.442Z,50.27
2023-03-06T00:26:59.031Z,50.40
2023-03-06T00:29:25.593Z,50.28
2023-03-06T00:31:52.156Z,50.37
2023-03-06T00:34:18.835Z,50.01
2023-03-06T00:36:45.428Z,49.74
2023-03-06T00:39:11.978Z,49.71
2023-03-06T00:41:38.704Z,49.71
2023-03-06T00:44:05.470Z,49.86
2023-03-06T00:47:12.847Z,49.49
2023-03-06T00:49:51.750Z,49.96
2023-03-06T00:52:18.281Z,49.77
2023-03-06T00:54:44.847Z,49.53
2023-03-06T00:57:11.617Z,49.55
2023-03-06T00:59:38.200Z,49.45
2023-03-06T01:02:04.856Z,49.44
2023-03-06T01:04:39.471Z,49.42
2023-03-06T01:07:06.054Z,49.83
2023-03-06T01:09:32.679Z,50.01
2023-03-06T01:11:59.283Z,49.66
2023-03-06T01:14:37.902Z,49.38
2023-03-06T01:17:24.557Z,49.85
2023-03-06T01:20:04.750Z,50.19
2023-03-06T01:22:31.391Z,50.15
2023-03-06T01:24:57.967Z,49.96
2023-03-06T01:27:24.554Z,50.07
2023-03-06T01:29:51.171Z,50.25
2023-03-06T01:32:17.785Z,50.05
2023-03-06T01:34:44.372Z,49.85
2023-03-06T01:37:11.126Z,49.77
2023-03-06T01:39:37.698Z,49.58
2023-03-06T01:42:05.050Z,49.61
2023-03-06T01:45:29.003Z,49.65
2023-03-06T01:48:07.535Z,49.72
2023-03-06T01:50:39.307Z,50.08
2023-03-06T01:53:07.194Z,49.86
2023-03-06T01:55:36.598Z,49.88
2023-03-06T01:58:13.622Z,49.74
2023-03-06T02:00:40.206Z,49.56
2023-03-06T02:06:04.180Z,49.53
2023-03-06T02:08:32.100Z,49.38
2023-03-06T02:11:11.377Z,49.41
2023-03-06T02:13:39.518Z,49.63
2023-03-06T02:16:08.833Z,49.63
2023-03-06T02:21:51.763Z,49.38
2023-03-06T02:24:48.433Z,49.41
2023-03-06T02:27:17.538Z,49.34
2023-03-06T02:29:44.852Z,49.07
2023-03-06T02:32:11.739Z,49.57
2023-03-06T02:34:38.246Z,49.48
2023-03-06T02:37:08.965Z,49.45
2023-03-06T02:39:46.810Z,49.42
2023-03-06T02:42:23.846Z,49.18
2023-03-06T02:44:52.840Z,49.42
2023-03-06T02:47:19.468Z,49.26
2023-03-06T02:49:46.064Z,49.11
2023-03-06T02:52:12.896Z,49.64
2023-03-06T02:54:57.994Z,49.25
2023-03-06T02:57:24.582Z,49.01
2023-03-06T02:59:51.129Z,48.89
2023-03-06T03:02:17.705Z,48.85
2023-03-06T03:04:57.246Z,48.89
2023-03-06T03:07:50.788Z,49.09
2023-03-06T03:13:12.571Z,49.07
2023-03-06T03:15:39.174Z,48.82
2023-03-06T03:18:05.769Z,48.68
2023-03-06T03:20:32.320Z,48.88
2023-03-06T03:25:34.147Z,48.79
2023-03-06T03:28:00.703Z,49.09
2023-03-06T03:30:27.242Z,49.14
2023-03-06T03:33:50.488Z,48.95
2023-03-06T03:39:30.456Z,48.58
2023-03-06T03:41:56.993Z,48.09
2023-03-06T03:44:23.774Z,47.89
2023-03-06T03:46:50.495Z,48.00
2023-03-06T03:49:17.144Z,48.11
2023-03-06T03:51:43.999Z,48.20
2023-03-06T03:54:10.741Z,48.59
2023-03-06T03:56:37.400Z,48.76
2023-03-06T03:59:04.059Z,49.11
2023-03-06T04:01:30.658Z,49.10
2023-03-06T04:03:57.239Z,48.66
2023-03-06T04:06:24.518Z,48.74
2023-03-06T04:08:51.101Z,48.96
2023-03-06T04:11:17.647Z,49.41
2023-03-06T04:13:44.202Z,49.16
2023-03-06T04:16:10.960Z,49.23
2023-03-06T04:18:37.897Z,49.19
2023-03-06T04:21:04.826Z,49.18
2023-03-06T04:27:04.787Z,49.56
2023-03-06T04:32:07.032Z,50.15
2023-03-06T04:34:33.670Z,50.06
2023-03-06T04:37:00.467Z,50.10
2023-03-06T04:44:43.874Z,50.63
2023-03-06T04:47:11.313Z,50.51
2023-03-06T04:49:37.936Z,50.77
2023-03-06T04:52:10.688Z,50.87
2023-03-06T04:55:04.199Z,50.56
2023-03-06T04:57:45.496Z,51.08
2023-03-06T05:00:17.092Z,51.20
2023-03-06T05:02:44.579Z,51.06
2023-03-06T05:05:12.436Z,50.57
2023-03-06T05:07:39.395Z,50.70
2023-03-06T05:10:07.214Z,51.18
2023-03-06T05:12:37.339Z,51.19
2023-03-06T05:15:05.597Z,50.88
2023-03-06T05:17:32.351Z,51.01
2023-03-06T05:19:59.358Z,51.13
2023-03-06T05:22:44.873Z,50.82
2023-03-06T05:25:20.382Z,50.62
2023-03-06T05:27:53.013Z,50.79
2023-03-06T05:30:21.254Z,51.11
2023-03-06T05:32:47.922Z,51.19
2023-03-06T05:35:20.421Z,51.02
2023-03-06T05:37:47.647Z,51.50
2023-03-06T05:40:15.304Z,51.15
2023-03-06T05:42:42.752Z,50.88
2023-03-06T05:45:10.113Z,51.23
2023-03-06T05:47:36.751Z,51.28
2023-03-06T05:50:04.718Z,51.28
2023-03-06T05:52:31.358Z,51.57
2023-03-06T05:54:57.893Z,52.22
2023-03-06T05:57:25.335Z,51.90
2023-03-06T05:59:52.015Z,51.54
2023-03-06T06:02:19.403Z,51.93
2023-03-06T06:04:45.999Z,52.20
2023-03-06T06:07:17.060Z,52.16
2023-03-06T06:09:45.639Z,52.11
2023-03-06T06:12:13.489Z,51.57
2023-03-06T06:14:40.297Z,51.71
2023-03-06T06:17:10.526Z,52.40
2023-03-06T06:19:37.132Z,52.72
2023-03-06T06:22:03.969Z,52.73
2023-03-06T06:24:32.267Z,52.28
2023-03-06T06:27:01.412Z,51.98
2023-03-06T06:29:30.281Z,52.28
2023-03-06T06:31:57.130Z,52.48
2023-03-06T06:34:24.532Z,52.54
2023-03-06T06:36:53.477Z,51.81
2023-03-06T06:39:22.301Z,51.98
2023-03-06T06:42:05.476Z,52.14
2023-03-06T06:44:37.275Z,52.26
2023-03-06T06:47:23.735Z,51.98
2023-03-06T06:49:55.509Z,51.65
2023-03-06T06:52:25.741Z,51.56
2023-03-06T06:54:53.007Z,50.32
2023-03-06T06:57:19.643Z,50.04
2023-03-06T06:59:46.397Z,51.57
2023-03-06T07:02:15.763Z,51.40
2023-03-06T07:05:00.224Z,50.73
2023-03-06T07:07:27.655Z,50.24
2023-03-06T07:09:55.808Z,49.43
2023-03-06T07:12:22.488Z,49.14
2023-03-06T07:14:49.071Z,49.07
2023-03-06T07:17:15.687Z,49.24
2023-03-06T07:19:42.252Z,49.28
2023-03-06T07:22:08.854Z,48.39
2023-03-06T07:24:35.609Z,47.74
2023-03-06T07:29:37.458Z,46.96
2023-03-06T07:32:04.209Z,46.91
2023-03-06T07:34:30.853Z,47.07
2023-03-06T07:36:57.532Z,47.87
2023-03-06T07:39:24.176Z,48.34
2023-03-06T07:42:37.217Z,48.61
2023-03-06T07:45:37.903Z,48.70
2023-03-06T07:48:22.971Z,49.30
2023-03-06T07:51:01.742Z,48.83
2023-03-06T07:53:28.750Z,48.39
2023-03-06T07:55:55.776Z,49.19
2023-03-06T07:58:22.598Z,49.17
2023-03-06T08:00:49.460Z,49.26
2023-03-06T08:03:16.725Z,48.96
2023-03-06T08:05:44.745Z,48.58
2023-03-06T08:08:12.061Z,48.33
2023-03-06T08:10:38.699Z,47.93
2023-03-06T08:13:05.274Z,47.71
2023-03-06T08:15:31.873Z,48.02
2023-03-06T08:20:40.503Z,47.37
2023-03-06T08:23:07.127Z,47.51
2023-03-06T08:25:33.796Z,47.13
2023-03-06T08:28:01.057Z,46.77
2023-03-06T08:30:27.666Z,46.84
2023-03-06T08:33:25.563Z,46.71
2023-03-06T08:36:12.375Z,46.61
2023-03-06T08:38:39.176Z,47.33
2023-03-06T08:41:05.749Z,46.90
2023-03-06T08:43:32.481Z,45.76
2023-03-06T08:45:59.223Z,45.44
2023-03-06T08:48:25.948Z,44.67
2023-03-06T08:53:41.658Z,44.51
2023-03-06T08:56:21.867Z,43.73
2023-03-06T08:58:49.147Z,42.87
2023-03-06T09:01:17.826Z,43.08
2023-03-06T09:03:44.816Z,42.23
2023-03-06T09:07:23.674Z,43.21
2023-03-06T09:10:28.158Z,43.46
2023-03-06T09:12:55.503Z,43.96
2023-03-06T09:15:23.379Z,43.33
2023-03-06T09:17:50.923Z,43.19
2023-03-06T09:20:18.357Z,43.62
2023-03-06T09:22:45.727Z,42.97
2023-03-06T09:25:20.454Z,41.63
2023-03-06T09:27:55.454Z,42.43
2023-03-06T09:30:28.757Z,43.50
2023-03-06T09:32:55.408Z,44.95
2023-03-06T09:35:22.020Z,44.29
2023-03-06T09:37:48.627Z,42.75
2023-03-06T09:40:54.759Z,43.59
2023-03-06T09:43:46.138Z,45.05
2023-03-06T09:46:19.028Z,43.40
2023-03-06T09:49:30.257Z,42.27
2023-03-06T09:52:23.043Z,42.58
2023-03-06T09:54:58.468Z,42.99
2023-03-06T09:57:32.197Z,42.62
2023-03-06T10:00:08.670Z,43.69
2023-03-06T10:02:44.650Z,42.14
2023-03-06T10:05:20.460Z,42.82
2023-03-06T10:07:57.068Z,42.63
2023-03-06T10:10:27.137Z,42.52
2023-03-06T10:13:03.396Z,41.61
2023-03-06T10:15:36.241Z,43.12
2023-03-06T10:18:03.618Z,41.81
2023-03-06T10:21:16.967Z,40.37
2023-03-06T10:24:01.508Z,41.38
2023-03-06T10:26:43.941Z,42.70
2023-03-06T10:29:13.495Z,42.72
2023-03-06T10:31:44.698Z,42.54
2023-03-06T10:34:22.038Z,42.58
2023-03-06T10:36:48.733Z,43.58
2023-03-06T10:39:20.735Z,43.96
2023-03-06T10:42:17.707Z,44.37
2023-03-06T10:45:09.685Z,43.02
2023-03-06T10:47:37.599Z,43.12
2023-03-06T10:50:27.999Z,43.15
2023-03-06T10:53:07.066Z,43.11
2023-03-06T10:55:35.724Z,42.40
2023-03-06T10:58:19.498Z,42.57
2023-03-06T11:00:46.471Z,42.12
2023-03-06T11:03:23.298Z,41.55
2023-03-06T11:05:55.689Z,41.17
2023-03-06T11:08:23.231Z,41.11
2023-03-06T11:11:06.029Z,41.03
2023-03-06T11:13:38.455Z,42.06
2023-03-06T11:16:40.725Z,42.42
2023-03-06T11:19:27.279Z,42.90
2023-03-06T11:22:06.446Z,41.54
2023-03-06T11:24:40.624Z,41.41
2023-03-06T11:27:34.856Z,41.55
2023-03-06T11:30:19.996Z,40.83
2023-03-06T11:32:54.022Z,40.34
2023-03-06T11:35:24.942Z,42.23
2023-03-06T11:38:04.902Z,39.86
2023-03-06T11:40:42.648Z,39.61
2023-03-06T11:43:23.346Z,41.24
2023-03-06T11:46:15.312Z,40.69
2023-03-06T11:48:46.657Z,40.62
2023-03-06T11:51:35.519Z,40.75
2023-03-06T11:54:02.690Z,40.85
2023-03-06T11:56:47.719Z,40.94
2023-03-06T11:59:29.468Z,41.30
2023-03-06T12:02:00.564Z,42.29
2023-03-06T12:04:48.980Z,41.18
2023-03-06T12:07:31.277Z,41.82
2023-03-06T12:10:09.510Z,42.17
2023-03-06T12:12:51.355Z,42.31
2023-03-06T12:15:42.726Z,41.21
2023-03-06T12:18:34.978Z,41.59
2023-03-06T12:21:29.430Z,40.26
2023-03-06T12:24:23.326Z,41.46
2023-03-06T12:27:10.633Z,41.38
2023-03-06T12:29:53.463Z,41.26
2023-03-06T12:32:55.797Z,41.54
2023-03-06T12:35:45.430Z,41.26
2023-03-06T12:38:46.677Z,41.36
2023-03-06T12:41:28.415Z,40.80
2023-03-06T12:44:01.045Z,40.54
2023-03-06T12:46:30.458Z,41.12
2023-03-06T12:49:23.037Z,41.82
2023-03-06T12:51:58.594Z,41.57
2023-03-06T12:54:29.387Z,42.00
2023-03-06T12:56:58.225Z,41.76
2023-03-06T13:02:38.735Z,41.37
2023-03-06T13:05:14.171Z,42.65
2023-03-06T13:07:52.849Z,42.35
2023-03-06T13:10:27.082Z,41.91
2023-03-06T13:12:57.577Z,41.10
2023-03-06T13:19:42.125Z,40.32
2023-03-06T13:22:22.380Z,39.09
2023-03-06T13:25:17.636Z,38.96
2023-03-06T13:27:54.322Z,37.90
2023-03-06T13:30:45.174Z,38.08
2023-03-06T13:33:33.244Z,40.20
2023-03-06T13:36:20.443Z,39.24
2023-03-06T13:38:53.190Z,40.50
2023-03-06T13:41:22.432Z,41.79
2023-03-06T13:43:51.768Z,42.54
2023-03-06T13:46:27.443Z,42.35
2023-03-06T13:49:19.801Z,43.15
2023-03-06T13:51:52.495Z,42.66
2023-03-06T13:54:57.167Z,41.99
2023-03-06T13:58:04.938Z,41.09
2023-03-06T14:00:41.232Z,39.83
2023-03-06T14:03:25.848Z,40.56
2023-03-06T14:05:52.814Z,43.87
2023-03-06T14:08:20.579Z,42.93
2023-03-06T14:10:58.216Z,42.58
2023-03-06T14:13:41.877Z,45.34
2023-03-06T14:16:21.576Z,47.13
2023-03-06T14:18:50.667Z,48.39
2023-03-06T14:21:27.900Z,48.12
2023-03-06T14:24:03.049Z,48.71
2023-03-06T14:26:37.696Z,49.46
2023-03-06T14:29:04.293Z,52.29
2023-03-06T14:31:36.407Z,52.53
2023-03-06T14:34:07.157Z,53.42
2023-03-06T14:36:43.782Z,53.52
2023-03-06T14:39:31.076Z,54.73
2023-03-06T14:42:16.736Z,53.92
2023-03-06T14:44:43.982Z,51.46
2023-03-06T14:47:27.622Z,51.43
2023-03-06T14:50:23.148Z,52.70
2023-03-06T14:52:55.234Z,52.72
2023-03-06T14:55:25.310Z,53.19
2023-03-06T14:57:58.232Z,54.06
2023-03-06T15:00:30.122Z,56.22
2023-03-06T15:02:57.821Z,56.60
2023-03-06T15:05:29.938Z,56.47
2023-03-06T15:08:02.075Z,56.65
2023-03-06T15:10:31.528Z,58.28
2023-03-06T15:13:09.164Z,59.05
2023-03-06T15:15:36.413Z,58.63
2023-03-06T15:18:03.317Z,57.10
2023-03-06T15:20:53.492Z,57.51
2023-03-06T15:23:25.488Z,58.50
2023-03-06T15:26:00.475Z,58.77
2023-03-06T15:28:39.577Z,57.86
2023-03-06T15:31:20.684Z,57.64
2023-03-06T15:34:06.825Z,56.77
2023-03-06T15:36:55.002Z,58.16
2023-03-06T15:39:34.245Z,57.00
2023-03-06T15:42:21.234Z,57.60
2023-03-06T15:44:50.776Z,57.23
2023-03-06T15:47:17.585Z,56.82
2023-03-06T15:49:44.937Z,55.82
2023-03-06T15:52:12.057Z,57.32
2023-03-06T15:54:38.818Z,59.08
2023-03-06T15:57:08.159Z,59.58
2023-03-06T15:59:43.096Z,60.57
2023-03-06T16:02:18.210Z,61.00
2023-03-06T16:04:45.638Z,61.02
2023-03-06T16:07:13.084Z,60.66
2023-03-06T16:09:41.365Z,60.14
2023-03-06T16:12:15.770Z,59.72
2023-03-06T16:14:42.514Z,59.82
2023-03-06T16:17:12.207Z,62.78
2023-03-06T16:19:39.101Z,60.97
2023-03-06T16:22:05.731Z,60.32
2023-03-06T16:24:32.431Z,60.18
2023-03-06T16:27:01.523Z,59.35
2023-03-06T16:29:29.424Z,58.81
2023-03-06T16:31:57.982Z,59.06
2023-03-06T16:34:25.055Z,61.28
2023-03-06T16:36:52.109Z,61.58
2023-03-06T16:39:21.669Z,59.92
2023-03-06T16:41:51.597Z,60.20
2023-03-06T16:44:18.744Z,61.33
2023-03-06T16:46:48.263Z,61.44
2023-03-06T16:49:20.693Z,60.74
2023-03-06T16:51:48.143Z,60.06
2023-03-06T16:54:14.934Z,60.31
2023-03-06T16:56:42.097Z,59.34
2023-03-06T16:59:09.377Z,60.82
2023-03-06T17:01:36.887Z,61.35
2023-03-06T17:04:03.547Z,61.77
2023-03-06T17:06:30.603Z,61.21
2023-03-06T17:09:00.169Z,60.49
2023-03-06T17:11:27.559Z,60.80
2023-03-06T17:13:55.422Z,60.53
2023-03-06T17:16:22.497Z,60.16
2023-03-06T17:18:49.748Z,61.11
2023-03-06T17:21:16.373Z,61.82
2023-03-06T17:23:44.445Z,61.82
2023-03-06T17:26:20.276Z,61.07
2023-03-06T17:28:47.525Z,61.69
2023-03-06T17:31:26.515Z,63.03
2023-03-06T17:33:57.202Z,61.55
2023-03-06T17:36:23.959Z,62.33
2023-03-06T17:38:51.300Z,62.32
2023-03-06T17:41:17.845Z,62.12
2023-03-06T17:43:44.450Z,60.56
2023-03-06T17:46:13.504Z,61.60
2023-03-06T17:48:40.142Z,60.48
2023-03-06T17:51:07.514Z,61.50
2023-03-06T17:53:34.239Z,61.26
2023-03-06T17:56:06.697Z,59.89
2023-03-06T17:58:33.476Z,59.02
2023-03-06T18:01:00.348Z,60.10
2023-03-06T18:03:27.284Z,59.44
2023-03-06T18:06:05.113Z,58.32
2023-03-06T18:08:32.265Z,58.72
2023-03-06T18:11:04.208Z,59.14
2023-03-06T18:13:32.373Z,59.49
2023-03-06T18:15:59.734Z,59.39
2023-03-06T18:18:27.331Z,59.81
2023-03-06T18:20:54.243Z,58.58
2023-03-06T18:23:20.849Z,58.30
2023-03-06T18:25:47.444Z,58.45
2023-03-06T18:28:14.061Z,60.73
2023-03-06T18:30:42.352Z,61.52
2023-03-06T18:33:10.250Z,61.27
2023-03-06T18:35:37.467Z,61.22
2023-03-06T18:38:04.107Z,62.12
2023-03-06T18:40:30.694Z,63.73
2023-03-06T18:42:57.336Z,62.69
2023-03-06T18:45:24.083Z,61.85
2023-03-06T18:47:54.944Z,61.59
2023-03-06T18:50:21.584Z,62.26
2023-03-06T18:52:48.201Z,61.42
2023-03-06T18:55:14.791Z,60.92
2023-03-06T18:57:41.769Z,61.26
2023-03-06T19:00:09.523Z,61.24
2023-03-06T19:02:36.101Z,61.43
2023-03-06T19:05:02.779Z,61.21
2023-03-06T19:07:29.388Z,60.65
2023-03-06T19:09:56.193Z,60.89
2023-03-06T19:12:23.648Z,59.95
2023-03-06T19:14:50.342Z,59.55
2023-03-06T19:17:16.918Z,59.96
2023-03-06T19:19:43.580Z,59.93
2023-03-06T19:22:10.197Z,60.08
2023-03-06T19:24:36.749Z,61.52
2023-03-06T19:27:03.359Z,61.77
2023-03-06T19:29:29.972Z,61.80
2023-03-06T19:31:57.547Z,61.65
2023-03-06T19:34:24.274Z,61.62
2023-03-06T19:36:51.279Z,60.58
2023-03-06T19:39:18.219Z,62.66
2023-03-06T19:41:46.613Z,62.19
2023-03-06T19:44:14.597Z,62.22
2023-03-06T19:46:41.174Z,61.21
2023-03-06T19:49:12.108Z,61.19
2023-03-06T19:51:38.933Z,61.01
2023-03-06T19:54:05.693Z,60.63
2023-03-06T19:56:33.668Z,60.89
2023-03-06T19:59:00.781Z,60.99
2023-03-06T20:01:28.460Z,60.71
2023-03-06T20:03:59.866Z,60.70
2023-03-06T20:06:29.452Z,60.46
2023-03-06T20:08:56.190Z,61.32
2023-03-06T20:11:29.927Z,61.51
2023-03-06T20:13:58.700Z,60.96
2023-03-06T20:16:28.113Z,60.66
2023-03-06T20:18:58.062Z,60.34
2023-03-06T20:21:25.852Z,60.20
2023-03-06T20:23:53.773Z,59.94
2023-03-06T20:26:20.522Z,60.30
2023-03-06T20:28:50.461Z,60.28
2023-03-06T20:31:21.856Z,60.13
2023-03-06T20:33:51.072Z,59.64
2023-03-06T20:36:20.797Z,59.69
2023-03-06T20:38:47.894Z,59.66
2023-03-06T20:41:25.196Z,59.54
2023-03-06T20:43:52.474Z,59.93
2023-03-06T20:46:21.587Z,59.74
2023-03-06T20:48:50.798Z,59.75
2023-03-06T20:53:55.893Z,59.67
2023-03-06T20:56:27.590Z,59.81
2023-03-06T20:58:56.269Z,60.40
2023-03-06T21:01:28.652Z,60.26
2023-03-06T21:03:56.953Z,60.07
2023-03-06T21:09:51.746Z,59.71
2023-03-06T21:12:18.348Z,60.37
2023-03-06T21:14:44.899Z,60.40
2023-03-06T21:17:13.798Z,60.15
2023-03-06T21:19:41.598Z,60.15
2023-03-06T21:22:10.856Z,60.40
2023-03-06T21:24:40.580Z,60.08
2023-03-06T21:27:07.184Z,60.06
2023-03-06T21:29:33.761Z,60.93
2023-03-06T21:32:00.344Z,61.25
2023-03-06T21:34:27.348Z,60.74
2023-03-06T21:36:54.091Z,61.27
2023-03-06T21:39:21.050Z,60.71
2023-03-06T21:41:47.584Z,60.55
2023-03-06T21:44:14.205Z,60.53
2023-03-06T21:46:40.803Z,61.67
2023-03-06T21:49:07.799Z,61.87
2023-03-06T21:51:34.399Z,62.61
2023-03-06T21:54:02.173Z,62.77
2023-03-06T21:56:29.300Z,62.68
2023-03-06T21:58:56.279Z,62.13
2023-03-06T22:01:26.083Z,61.60
2023-03-06T22:03:53.376Z,61.24
2023-03-06T22:06:25.664Z,60.82
2023-03-06T22:08:52.630Z,60.78
2023-03-06T22:11:44.121Z,61.92
2023-03-06T22:14:29.858Z,62.88
2023-03-06T22:16:56.986Z,62.53
2023-03-06T22:19:23.862Z,62.57
2023-03-06T22:21:50.415Z,62.98
2023-03-06T22:24:17.022Z,63.42
2023-03-06T22:26:43.610Z,63.01
2023-03-06T22:32:05.994Z,62.91
2023-03-06T22:34:32.711Z,63.23
2023-03-06T22:36:59.289Z,62.59
2023-03-06T22:39:26.043Z,62.41
2023-03-06T22:41:55.662Z,61.96
2023-03-06T22:44:34.573Z,61.74
2023-03-06T22:47:25.839Z,61.77
2023-03-06T22:50:18.317Z,62.09
2023-03-06T22:52:45.673Z,62.87
2023-03-06T22:55:12.213Z,62.48
2023-03-06T22:57:38.741Z,62.76
2023-03-06T23:00:06.932Z,62.47
2023-03-06T23:02:35.242Z,62.17
2023-03-06T23:07:43.764Z,62.51
2023-03-06T23:10:10.931Z,62.53
2023-03-06T23:12:37.502Z,62.21
2023-03-06T23:15:05.623Z,61.91
2023-03-06T23:17:32.138Z,61.70
2023-03-06T23:20:17.533Z,61.46
2023-03-06T23:23:08.248Z,61.37
2023-03-06T23:28:10.251Z,61.45
2023-03-06T23:30:39.083Z,61.29
2023-03-06T23:33:05.699Z,61.84
2023-03-06T23:35:33.866Z,62.80
2023-03-06T23:38:02.377Z,63.83
2023-03-06T23:40:31.935Z,64.27
2023-03-06T23:42:58.488Z,63.27
2023-03-06T23:45:25.120Z,62.54
2023-03-06T23:47:51.724Z,62.18
2023-03-06T23:50:19.603Z,62.98
2023-03-06T23:52:46.180Z,63.51
2023-03-06T23:55:44.951Z,63.07
2023-03-06T23:58:23.661Z,63.25
